Data for 04/04/2014

Time Sea-Level Adjusted Pressure Absolute Pressure Temperature Relative Humidity Dew Point   
(mb) (inHg) (mb) (inHg) (C) (F) (%) (C) (F)
00:05 1016 30 845 24.95 0.8 33.5 47 -9.4 15.1
00:10 1016 30 845 24.95 0.8 33.5 47 -9.2 15.5
00:15 1016 30 845 24.95 0.7 33.3 47 -9.4 15
00:20 1016 30 845 24.95 0.7 33.2 48 -9.2 15.5
00:25 1016 30 845 24.95 0.5 32.9 48 -9.4 15.1
00:30 1016 30 845 24.95 0.4 32.8 48 -9.3 15.2
00:35 1016 30 845 24.95 0.4 32.7 48 -9.4 15.1
00:40 1016 30 845 24.95 0.4 32.7 48 -9.3 15.3
00:45 1015 29.97 845 24.95 0.3 32.6 48 -9.3 15.3
00:50 1015 29.97 845 24.95 0.3 32.6 48 -9.4 15
00:55 1015 29.97 845 24.95 0.4 32.7 48 -9.3 15.2
01:00 1015 29.97 845 24.95 0.3 32.6 49 -9.3 15.2
01:05 1015 29.97 845 24.95 0.2 32.4 48 -9.5 14.8
01:10 1015 29.97 844 24.92 0.4 32.6 48 -9.3 15.3
01:15 1015 29.97 844 24.92 0.3 32.5 48 -9.5 14.8
01:20 1015 29.97 844 24.92 0.3 32.6 48 -9.5 14.8
01:25 1015 29.97 845 24.95 0.3 32.5 48 -9.4 15
01:30 1015 29.97 844 24.92 0.2 32.4 48 -9.6 14.6
01:35 1015 29.97 844 24.92 0.2 32.4 49 -9.2 15.4
01:40 1015 29.97 844 24.92 -0.1 31.8 50 -9.2 15.4
01:45 1015 29.97 844 24.92 -0.2 31.6 49 -9.7 14.6
01:50 1015 29.97 844 24.92 0 32 48 -9.8 14.3
01:55 1015 29.97 844 24.92 0.1 32.1 49 -9.4 15.2
02:00 1015 29.97 844 24.92 -0 32 49 -9.5 14.9
02:05 1015 29.97 844 24.92 0 32 50 -9.3 15.2
02:10 1015 29.97 844 24.92 0.1 32.3 49 -9.3 15.2
02:15 1015 29.97 844 24.92 0.1 32.2 49 -9.4 15.1
02:20 1015 29.97 844 24.92 -0 32 50 -9.2 15.5
02:25 1015 29.97 844 24.92 -0.1 31.9 50 -9.4 15.1
02:30 1015 29.97 844 24.92 0.1 32.1 48 -9.6 14.8
02:35 1015 29.97 844 24.92 0 32 50 -9.1 15.6
02:40 1015 29.97 844 24.92 -0.3 31.4 51 -9.4 15.1
02:45 1015 29.97 844 24.92 -0.4 31.3 51 -9.4 15
02:50 1015 29.97 844 24.92 -0.5 31 51 -9.4 15.1
02:55 1015 29.97 844 24.92 -0.5 31.1 51 -9.5 15
03:00 1015 29.97 844 24.92 -0.4 31.2 51 -9.3 15.2
03:05 1015 29.97 844 24.92 -0.4 31.3 51 -9.3 15.3
03:10 1015 29.97 844 24.92 -0.4 31.3 51 -9.3 15.3
03:15 1015 29.97 844 24.92 -0.3 31.4 51 -9.3 15.2
03:20 1015 29.97 844 24.92 -0.3 31.4 51 -9.2 15.4
03:25 1015 29.97 844 24.92 -0.5 31.1 52 -9.2 15.5
03:30 1015 29.97 844 24.92 -0.8 30.5 53 -9.2 15.5
03:35 1015 29.97 844 24.92 -1.1 30 54 -9.3 15.3
03:40 1015 29.97 844 24.92 -1.3 29.7 55 -9.2 15.5
03:45 1015 29.97 844 24.92 -1.2 29.8 54 -9.4 15.1
03:50 1015 29.97 844 24.92 -1 30.2 53 -9.4 15.1
03:55 1015 29.97 844 24.92 -1.1 30.1 53 -9.3 15.2
04:00 1015 29.97 844 24.92 -1.2 29.9 53 -9.5 14.9
04:05 1015 29.97 844 24.92 -1.2 29.9 54 -9.4 15
04:10 1015 29.97 844 24.92 -1.2 29.9 53 -9.5 14.8
04:15 1015 29.97 844 24.92 -1.2 29.8 53 -9.6 14.7
04:20 1015 29.97 844 24.92 -1.2 29.9 53 -9.6 14.7
04:25 1015 29.97 844 24.92 -1.2 29.9 53 -9.6 14.7
04:30 1015 29.97 844 24.92 -1.2 29.9 53 -9.6 14.7
04:35 1015 29.97 844 24.92 -1.1 30.1 52 -9.7 14.6
04:40 1015 29.97 844 24.92 -1.2 29.9 53 -9.6 14.7
04:45 1015 29.97 844 24.92 -1.2 29.8 53 -9.7 14.5
04:50 1015 29.97 844 24.92 -1.2 29.9 53 -9.7 14.6
04:55 1015 29.97 844 24.92 -1.2 29.9 53 -9.6 14.7
05:00 1015 29.97 844 24.92 -1.1 30 52 -9.7 14.6
05:05 1014 29.94 844 24.92 -1.1 30 52 -9.8 14.4
05:10 1014 29.94 844 24.92 -1.1 29.9 53 -9.6 14.7
05:15 1015 29.97 844 24.92 -1.5 29.3 54 -9.6 14.7
05:20 1015 29.97 844 24.92 -1.7 28.9 54 -9.7 14.5
05:25 1015 29.97 844 24.92 -1.7 29 55 -9.6 14.7
05:30 1015 29.97 844 24.92 -2 28.4 56 -9.6 14.6
05:35 1015 29.97 844 24.92 -1.9 28.5 55 -9.8 14.3
05:40 1015 29.97 844 24.92 -1.9 28.5 54 -10 14
05:45 1015 29.97 844 24.92 -1.9 28.5 55 -9.9 14.2
05:50 1015 29.97 844 24.92 -1.7 28.9 54 -9.8 14.3
05:55 1015 29.97 844 24.92 -1.4 29.5 53 -9.8 14.3
06:00 1015 29.97 844 24.92 -1.4 29.5 53 -9.8 14.3
06:05 1015 29.97 844 24.92 -1.5 29.3 54 -9.7 14.5
06:10 1015 29.97 844 24.92 -1.6 29.2 53 -10 14
06:15 1015 29.97 844 24.92 -1.2 29.8 52 -9.9 14.3
06:20 1015 29.97 844 24.92 -1.1 30 52 -9.7 14.5
06:25 1015 29.97 844 24.92 -1.4 29.5 54 -9.6 14.8
06:30 1015 29.97 844 24.92 -1.5 29.3 54 -9.7 14.6
06:35 1015 29.97 844 24.92 -1.3 29.6 54 -9.6 14.7
06:40 1015 29.97 844 24.92 -1.2 29.9 53 -9.6 14.8
06:45 1015 29.97 844 24.92 -1.2 29.8 54 -9.5 14.9
06:50 1015 29.97 844 24.92 -1.2 29.9 54 -9.4 15.1
06:55 1015 29.97 844 24.92 -1 30.2 53 -9.5 15
07:00 1015 29.97 844 24.92 -0.7 30.8 51 -9.6 14.7
07:05 1015 29.97 844 24.92 -0.5 31.1 51 -9.4 15
07:10 1015 29.97 844 24.92 -0 31.9 49 -9.5 14.9
07:15 1015 29.97 844 24.92 0.3 32.6 48 -9.4 15
07:20 1015 29.97 844 24.92 0.5 33 47 -9.4 15.1
07:25 1015 29.97 844 24.92 0.6 33 48 -9.3 15.2
07:30 1015 29.97 844 24.92 0.8 33.5 47 -9.2 15.4
07:35 1015 29.97 844 24.92 1.2 34.2 45 -9.4 15.1
07:40 1015 29.97 844 24.92 1.2 34.2 46 -9.1 15.7
07:45 1015 29.97 844 24.92 0.9 33.6 47 -9.2 15.5
07:50 1015 29.97 844 24.92 0.9 33.5 48 -9.1 15.7
07:55 1015 29.97 844 24.92 1.2 34.2 46 -9.3 15.3
08:00 1015 29.97 844 24.92 1.6 34.9 45 -9.1 15.6
08:05 1015 29.97 844 24.92 1.9 35.5 43 -9.3 15.2
08:10 1015 29.97 844 24.92 2.3 36.1 43 -9.2 15.5
08:15 1015 29.97 844 24.92 2.6 36.6 42 -9.2 15.4
08:20 1014 29.94 844 24.92 3 37.5 41 -9 15.8
08:25 1014 29.94 844 24.92 2.7 36.9 42 -9 15.9
08:30 1014 29.94 844 24.92 2.9 37.2 41 -9 15.7
08:35 1014 29.94 844 24.92 3.5 38.3 39 -9.1 15.6
08:40 1014 29.94 844 24.92 4.4 39.9 37 -9.1 15.6
08:45 1014 29.94 844 24.92 4.7 40.4 37 -8.9 16.1
08:50 1014 29.94 844 24.92 4.3 39.8 37 -9.2 15.5
08:55 1014 29.94 843 24.89 4.5 40.1 37 -9 15.8
09:00 1014 29.94 843 24.89 4.6 40.2 37 -9.1 15.7
09:05 1014 29.94 843 24.89 4.6 40.4 35 -9.4 15.1
09:10 1014 29.94 843 24.89 4.9 40.8 35 -9.4 15.2
09:15 1014 29.94 843 24.89 5.6 42.1 32 -9.6 14.7
09:20 1014 29.94 843 24.89 5.7 42.2 33 -9.5 15
09:25 1014 29.94 843 24.89 5.8 42.4 29 -10.8 12.6
09:30 1014 29.94 843 24.89 6.4 43.5 28 -10.6 12.9
09:35 1014 29.94 843 24.89 6.5 43.7 28 -10.7 12.7
09:40 1014 29.94 843 24.89 6.7 44 29 -10.1 13.9
09:45 1014 29.94 843 24.89 6.7 44.1 28 -10.3 13.4
09:50 1014 29.94 843 24.89 7.1 44.7 28 -10 13.9
09:55 1014 29.94 843 24.89 7.4 45.4 27 -10.4 13.2
10:00 1014 29.94 843 24.89 8 46.4 27 -9.8 14.4
10:05 1014 29.94 843 24.89 7.6 45.6 27 -10.3 13.5
10:10 1014 29.94 843 24.89 7.5 45.5 27 -10.2 13.6
10:15 1014 29.94 843 24.89 7.3 45.1 26 -10.9 12.4
10:20 1014 29.94 843 24.89 7.7 45.9 25 -11.4 11.6
10:25 1014 29.94 843 24.89 8.4 47.1 24 -11.2 11.8
10:30 1014 29.94 843 24.89 9 48.2 22 -11.5 11.4
10:35 1014 29.94 843 24.89 8.6 47.5 25 -10.5 13.1
10:40 1014 29.94 843 24.89 8.8 47.8 23 -11.1 12
10:45 1013 29.91 843 24.89 8.4 47.1 25 -10.8 12.6
10:50 1013 29.91 843 24.89 8 46.3 26 -10.6 13
10:55 1013 29.91 843 24.89 7.8 46.1 25 -10.9 12.4
11:00 1013 29.91 843 24.89 7.7 45.9 24 -11.5 11.2
11:05 1013 29.91 843 24.89 8.3 46.9 23 -11.9 10.7
11:10 1013 29.91 842 24.86 8.5 47.3 25 -10.5 13.1
11:15 1013 29.91 842 24.86 8.9 48 23 -10.9 12.3
11:20 1013 29.91 842 24.86 10.2 50.3 20 -11.8 10.7
11:25 1013 29.91 842 24.86 10 49.9 22 -10.5 13
11:30 1013 29.91 842 24.86 9 48.1 23 -11 12.2
11:35 1013 29.91 842 24.86 8.4 47.1 24 -10.9 12.4
11:40 1013 29.91 842 24.86 8.6 47.5 24 -10.8 12.6
11:45 1013 29.91 842 24.86 9.2 48.5 22 -11.4 11.5
11:50 1013 29.91 842 24.86 9.1 48.5 23 -10.8 12.5
11:55 1013 29.91 842 24.86 8.8 47.8 22 -11.7 10.9
12:00 1013 29.91 842 24.86 9.3 48.7 23 -10.9 12.3
12:05 1013 29.91 842 24.86 8.9 48.1 22 -11.7 10.9
12:10 1013 29.91 842 24.86 9.9 49.8 20 -11.9 10.6
12:15 1012 29.88 842 24.86 10.6 51 21 -10.8 12.5
12:20 1012 29.88 842 24.86 10.2 50.4 20 -11.8 10.8
12:25 1012 29.88 841 24.83 9.9 49.7 21 -11.6 11.1
12:30 1012 29.88 841 24.83 9.8 49.6 22 -11.1 12
12:35 1012 29.88 841 24.83 9.9 49.8 20 -12 10.4
12:40 1012 29.88 841 24.83 10.4 50.8 20 -11.9 10.6
12:45 1012 29.88 841 24.83 10.1 50.2 19 -12.7 9.2
12:50 1012 29.88 841 24.83 9.6 49.2 20 -12.5 9.6
12:55 1012 29.88 841 24.83 9.9 49.7 20 -12.1 10.2
13:00 1012 29.88 841 24.83 9.6 49.2 22 -11.4 11.4
13:05 1012 29.88 841 24.83 9.9 49.8 20 -11.8 10.7
13:10 1012 29.88 841 24.83 10 50 19 -12.6 9.3
13:15 1012 29.88 841 24.83 9.8 49.6 20 -12.1 10.2
13:20 1012 29.88 841 24.83 9.8 49.7 20 -12.2 10
13:25 1011 29.85 841 24.83 9.8 49.7 19 -12.8 8.9
13:30 1011 29.85 841 24.83 9.9 49.8 19 -12.7 9.1
13:35 1011 29.85 841 24.83 9.9 49.8 19 -12.6 9.3
13:40 1011 29.85 841 24.83 10.7 51.2 21 -11 12.1
13:45 1011 29.85 840 24.81 10.8 51.4 20 -11.5 11.4
13:50 1011 29.85 840 24.81 10.8 51.4 21 -10.5 13.1
13:55 1011 29.85 840 24.81 10.8 51.4 21 -10.7 12.8
14:00 1011 29.85 840 24.81 10.7 51.2 21 -10.6 13
14:05 1011 29.85 840 24.81 10.2 50.3 21 -11.3 11.7
14:10 1011 29.85 840 24.81 10.4 50.7 22 -10.5 13.1
14:15 1011 29.85 840 24.81 11 51.9 20 -11.4 11.5
14:20 1011 29.85 840 24.81 10.9 51.6 20 -11.4 11.5
14:25 1011 29.85 840 24.81 10.7 51.2 22 -10.3 13.4
14:30 1011 29.85 840 24.81 10.8 51.4 23 -9.4 15.1
14:35 1011 29.85 840 24.81 10.2 50.4 27 -7.8 18
14:40 1011 29.85 840 24.81 9.9 49.8 25 -9.2 15.4
14:45 1011 29.85 840 24.81 10.1 50.2 24 -9.7 14.5
14:50 1011 29.85 840 24.81 10.4 50.7 24 -9.4 15.1
14:55 1011 29.85 840 24.81 10.3 50.6 22 -10.4 13.3
15:00 1011 29.85 840 24.81 10.6 51 22 -10.3 13.4
15:05 1011 29.85 840 24.81 10.9 51.7 23 -9.6 14.8
15:10 1011 29.85 840 24.81 11.3 52.3 22 -9.5 14.9
15:15 1011 29.85 840 24.81 11.1 52 23 -9.5 15
15:20 1011 29.85 840 24.81 11 51.8 22 -10 14
15:25 1011 29.85 840 24.81 10.8 51.4 22 -10.3 13.5
15:30 1011 29.85 840 24.81 10.7 51.3 23 -9.6 14.7
15:35 1011 29.85 840 24.81 10.4 50.7 25 -8.8 16.2
15:40 1011 29.85 840 24.81 10.4 50.6 24 -9.4 15
15:45 1011 29.85 840 24.81 10.5 50.8 24 -9.1 15.6
15:50 1011 29.85 840 24.81 10.3 50.6 25 -8.9 16.1
15:55 1011 29.85 840 24.81 10.3 50.5 26 -8.5 16.7
16:00 1011 29.85 840 24.81 10.1 50.2 26 -8.3 17
16:05 1011 29.85 840 24.81 9.7 49.5 32 -6 21.1
16:10 1011 29.85 840 24.81 8.8 47.9 40 -3.9 25
16:15 1011 29.85 840 24.81 7.7 45.8 43 -4.1 24.7
16:20 1011 29.85 840 24.81 7.2 45 45 -4 24.8
16:25 1011 29.85 840 24.81 7.2 44.9 47 -3.4 25.9
16:30 1011 29.85 840 24.81 6.8 44.3 48 -3.4 26
16:35 1011 29.85 840 24.81 6.5 43.7 47 -4 24.7
16:40 1011 29.85 840 24.81 6.6 43.9 46 -4.1 24.6
16:45 1011 29.85 840 24.81 6.6 43.8 47 -3.9 25
16:50 1011 29.85 840 24.81 6.3 43.3 49 -3.6 25.5
16:55 1011 29.85 840 24.81 6 42.8 51 -3.3 26
17:00 1011 29.85 840 24.81 5.8 42.5 53 -3 26.5
17:05 1011 29.85 840 24.81 5.6 42.1 54 -2.9 26.8
17:10 1011 29.85 840 24.81 5.5 42 53 -3.2 26.2
17:15 1011 29.85 840 24.81 5.6 42 53 -3.1 26.4
17:20 1011 29.85 840 24.81 5.5 41.9 54 -3.1 26.4
17:25 1011 29.85 840 24.81 5.7 42.3 50 -3.9 24.9
17:30 1011 29.85 840 24.81 6 42.9 47 -4.5 23.9
17:35 1011 29.85 840 24.81 6.3 43.3 46 -4.6 23.7
17:40 1011 29.85 840 24.81 6.5 43.7 42 -5.5 22.1
17:45 1011 29.85 840 24.81 6.7 44.1 41 -5.7 21.8
17:50 1011 29.85 840 24.81 6.8 44.2 42 -5.3 22.5
17:55 1011 29.85 840 24.81 6.7 44 42 -5.3 22.4
18:00 1011 29.85 840 24.81 6.6 43.9 43 -5.1 22.8
18:05 1011 29.85 840 24.81 6.6 43.8 42 -5.4 22.2
18:10 1011 29.85 840 24.81 6.6 43.9 42 -5.5 22.2
18:15 1011 29.85 840 24.81 6.6 43.9 41 -5.8 21.5
18:20 1011 29.85 840 24.81 6.6 44 42 -5.5 22.1
18:25 1011 29.85 840 24.81 6.3 43.4 44 -5.1 22.9
18:30 1011 29.85 840 24.81 6 42.9 42 -5.9 21.4
18:35 1011 29.85 840 24.81 6 42.9 42 -5.8 21.6
18:40 1011 29.85 840 24.81 6.2 43.1 42 -5.8 21.5
18:45 1011 29.85 840 24.81 6.3 43.4 41 -5.9 21.4
18:50 1011 29.85 840 24.81 6.3 43.3 42 -5.7 21.8
18:55 1011 29.85 840 24.81 6.2 43.2 43 -5.4 22.2
19:00 1011 29.85 840 24.81 6.2 43.2 44 -5.1 22.8
19:05 1011 29.85 840 24.81 6.1 42.9 44 -5.1 22.8
19:10 1011 29.85 840 24.81 5.9 42.7 44 -5.4 22.2
19:15 1011 29.85 840 24.81 5.8 42.5 46 -5 22.9
19:20 1011 29.85 840 24.81 5.7 42.3 45 -5.4 22.2
19:25 1011 29.85 840 24.81 5.7 42.3 45 -5.2 22.7
19:30 1011 29.85 840 24.81 5.6 42.1 45 -5.4 22.3
19:35 1011 29.85 840 24.81 5.6 42 46 -5.1 22.7
19:40 1011 29.85 840 24.81 5.4 41.7 47 -5.1 22.9
19:45 1011 29.85 840 24.81 5.4 41.8 47 -5.1 22.9
19:50 1011 29.85 841 24.83 5.5 41.9 46 -5.2 22.6
19:55 1011 29.85 841 24.83 5.6 42.1 46 -5.1 22.8
20:00 1011 29.85 841 24.83 5.6 42.2 46 -5 23
20:05 1012 29.88 841 24.83 5.7 42.3 46 -5 23
20:10 1012 29.88 841 24.83 5.7 42.2 47 -4.8 23.3
20:15 1012 29.88 841 24.83 5.7 42.2 47 -4.7 23.5
20:20 1012 29.88 841 24.83 5.7 42.2 47 -4.7 23.6
20:25 1012 29.88 841 24.83 5.6 42.1 48 -4.6 23.7
20:30 1012 29.88 841 24.83 5.6 42 48 -4.6 23.7
20:35 1012 29.88 841 24.83 5.6 42.1 48 -4.6 23.7
20:40 1012 29.88 841 24.83 5.7 42.2 48 -4.5 23.9
20:45 1012 29.88 841 24.83 5.6 42.1 49 -4.3 24.3
20:50 1012 29.88 841 24.83 5.5 41.9 50 -4.1 24.5
20:55 1012 29.88 841 24.83 5.3 41.6 50 -4.2 24.4
21:00 1012 29.88 841 24.83 5.4 41.6 50 -4.1 24.5
21:05 1012 29.88 841 24.83 5.4 41.7 50 -4.1 24.6
21:10 1012 29.88 841 24.83 5.4 41.6 52 -3.7 25.3
21:15 1012 29.88 841 24.83 5.2 41.4 57 -2.7 27.1
21:20 1012 29.88 841 24.83 5.1 41.1 61 -1.9 28.6
21:25 1012 29.88 841 24.83 4.8 40.7 64 -1.4 29.5
21:30 1012 29.88 841 24.83 4.5 40 67 -1.1 30
21:35 1012 29.88 841 24.83 4.1 39.3 69 -1.1 30
21:40 1012 29.88 841 24.83 4.1 39.4 69 -1.1 30
21:45 1012 29.88 841 24.83 4 39.3 70 -0.9 30.4
21:50 1012 29.88 841 24.83 3.9 39 70 -1.1 30.1
21:55 1012 29.88 841 24.83 3.9 39 70 -1.1 30.1
22:00 1012 29.88 841 24.83 3.8 38.9 70 -1.2 29.8
22:05 1012 29.88 841 24.83 3.9 39 69 -1.2 29.8
22:10 1012 29.88 841 24.83 3.9 39 69 -1.2 29.8
22:15 1012 29.88 841 24.83 3.9 39 69 -1.2 29.8
22:20 1012 29.88 842 24.86 3.9 39.1 69 -1.2 29.8
22:25 1012 29.88 842 24.86 3.7 38.7 71 -1.1 30.1
22:30 1012 29.88 842 24.86 3.6 38.4 72 -1 30.1
22:35 1012 29.88 842 24.86 3.5 38.3 72 -1 30.2
22:40 1013 29.91 842 24.86 3.5 38.3 72 -1.1 30
22:45 1013 29.91 842 24.86 3.4 38 73 -1 30.1
22:50 1013 29.91 842 24.86 3.3 37.9 72 -1.2 29.8
22:55 1013 29.91 842 24.86 3.4 38.2 72 -1.2 29.9
23:00 1013 29.91 842 24.86 3.5 38.3 72 -1 30.1
23:05 1013 29.91 842 24.86 3.5 38.3 74 -0.7 30.7
23:10 1013 29.91 842 24.86 3.3 38 75 -0.6 30.9
23:15 1013 29.91 842 24.86 3.3 37.9 76 -0.6 30.9
23:20 1013 29.91 842 24.86 3.2 37.7 78 -0.3 31.4
23:25 1013 29.91 842 24.86 2.9 37.3 82 0.1 32.2
23:30 1013 29.91 842 24.86 2.5 36.4 85 0.1 32.2
23:35 1013 29.91 843 24.89 2.1 35.8 87 0.1 32.2
23:40 1013 29.91 843 24.89 1.9 35.4 89 0.2 32.4
23:45 1013 29.91 843 24.89 1.6 34.9 90 0.1 32.2
23:50 1013 29.91 843 24.89 1.3 34.4 91 0 32
23:55 1013 29.91 843 24.89 1.1 34 92 -0.1 31.8
24:00 1013 29.91 843 24.89 1 33.7 92 -0.2 31.6